createdAt,value
2018-09-12T00:00:18.009Z,78.20
2018-09-12T00:02:50.815Z,78.00
2018-09-12T00:05:23.565Z,78.10
2018-09-12T00:07:56.282Z,78.10
2018-09-12T00:10:29.032Z,78.10
2018-09-12T00:13:02.021Z,77.40
2018-09-12T00:15:34.840Z,77.40
2018-09-12T00:18:07.564Z,77.20
2018-09-12T00:20:40.292Z,77.50
2018-09-12T00:23:13.075Z,77.70
2018-09-12T00:25:45.912Z,77.80
2018-09-12T00:28:18.833Z,78.00
2018-09-12T00:30:51.543Z,77.50
2018-09-12T00:33:24.404Z,76.90
2018-09-12T00:35:57.024Z,76.50
2018-09-12T00:38:29.890Z,76.80
2018-09-12T00:41:02.494Z,76.10
2018-09-12T00:43:35.131Z,74.70
2018-09-12T00:46:07.934Z,73.50
2018-09-12T00:48:40.667Z,74.40
2018-09-12T00:51:14.227Z,73.60
2018-09-12T00:53:46.828Z,73.70
2018-09-12T00:56:19.427Z,73.80
2018-09-12T00:58:52.121Z,74.50
2018-09-12T01:01:24.753Z,74.30
2018-09-12T01:03:57.381Z,74.20
2018-09-12T01:06:30.072Z,73.60
2018-09-12T01:09:04.334Z,73.70
2018-09-12T01:11:37.016Z,73.80
2018-09-12T01:14:09.724Z,74.00
2018-09-12T01:16:42.419Z,74.30
2018-09-12T01:19:15.258Z,74.50
2018-09-12T01:21:47.926Z,74.30
2018-09-12T01:24:20.905Z,74.60
2018-09-12T01:26:53.577Z,75.20
2018-09-12T01:29:27.812Z,75.60
2018-09-12T01:32:00.484Z,75.50
2018-09-12T01:34:34.004Z,75.50
2018-09-12T01:37:07.655Z,76.20
2018-09-12T01:39:40.210Z,75.90
2018-09-12T01:42:13.374Z,76.20
2018-09-12T01:44:46.021Z,76.20
2018-09-12T01:47:18.803Z,75.60
2018-09-12T01:49:51.505Z,75.70
2018-09-12T01:52:24.196Z,76.10
2018-09-12T01:54:57.084Z,76.30
2018-09-12T01:57:29.722Z,76.50
2018-09-12T02:00:02.700Z,76.60
2018-09-12T02:02:35.404Z,77.10
2018-09-12T02:05:08.238Z,77.00
2018-09-12T02:07:42.218Z,77.10
2018-09-12T02:10:14.981Z,77.20
2018-09-12T02:12:47.873Z,77.10
2018-09-12T02:15:20.537Z,77.10
2018-09-12T02:17:53.352Z,77.60
2018-09-12T02:20:27.374Z,77.70
2018-09-12T02:23:00.126Z,78.00
2018-09-12T02:25:33.117Z,78.30
2018-09-12T02:28:05.893Z,78.50
2018-09-12T02:30:39.385Z,78.50
2018-09-12T02:33:12.060Z,77.70
2018-09-12T02:35:50.148Z,77.20
2018-09-12T02:38:22.921Z,77.00
2018-09-12T02:40:56.502Z,76.80
2018-09-12T02:43:29.361Z,76.80
2018-09-12T02:46:03.339Z,76.60
2018-09-12T02:48:36.148Z,76.20
2018-09-12T02:51:08.952Z,76.50
2018-09-12T02:53:41.803Z,76.30
2018-09-12T02:56:14.716Z,76.50
2018-09-12T02:58:47.959Z,76.50
2018-09-12T03:01:20.923Z,76.70
2018-09-12T03:03:53.677Z,77.10
2018-09-12T03:06:26.717Z,77.50
2018-09-12T03:08:59.447Z,78.20
2018-09-12T03:11:32.194Z,78.70
2018-09-12T03:14:05.488Z,79.20
2018-09-12T03:16:38.126Z,79.40
2018-09-12T03:19:10.822Z,79.60
2018-09-12T03:21:43.704Z,79.70
2018-09-12T03:24:16.779Z,80.20
2018-09-12T03:26:50.702Z,80.10
2018-09-12T03:29:23.551Z,80.60
2018-09-12T03:31:56.423Z,80.80
2018-09-12T03:34:29.546Z,80.70
2018-09-12T03:37:02.148Z,80.50
2018-09-12T03:39:34.842Z,80.30
2018-09-12T03:42:09.024Z,80.40
2018-09-12T03:44:42.485Z,80.50
2018-09-12T03:47:15.583Z,80.90
2018-09-12T03:49:48.292Z,81.10
2018-09-12T03:52:21.034Z,81.10
2018-09-12T03:54:53.853Z,81.20
2018-09-12T03:57:36.005Z,81.30
2018-09-12T04:00:09.321Z,81.60
2018-09-12T04:02:42.114Z,81.50
2018-09-12T04:05:15.525Z,81.30
2018-09-12T04:07:48.250Z,81.30
2018-09-12T04:10:21.104Z,81.40
2018-09-12T04:12:54.075Z,81.50
2018-09-12T04:15:27.066Z,81.80
2018-09-12T04:17:59.944Z,82.20
2018-09-12T04:20:32.676Z,83.00
2018-09-12T04:23:05.450Z,83.40
2018-09-12T04:25:39.168Z,83.00
2018-09-12T04:28:13.297Z,81.50
2018-09-12T04:30:45.868Z,81.80
2018-09-12T04:33:18.618Z,82.60
2018-09-12T04:35:51.290Z,83.90
2018-09-12T04:38:24.385Z,84.80
2018-09-12T04:40:58.016Z,85.60
2018-09-12T04:43:30.760Z,86.10
2018-09-12T04:46:03.760Z,85.50
2018-09-12T04:48:37.645Z,85.20
2018-09-12T04:51:10.389Z,85.30
2018-09-12T04:53:43.356Z,84.90
2018-09-12T04:56:20.034Z,84.50
2018-09-12T04:58:53.179Z,84.30
2018-09-12T05:01:26.616Z,83.90
2018-09-12T05:03:59.384Z,82.80
2018-09-12T05:06:32.226Z,82.60
2018-09-12T05:09:08.735Z,82.50
2018-09-12T05:11:41.427Z,82.70
2018-09-12T05:14:14.123Z,82.40
2018-09-12T05:16:46.805Z,82.70
2018-09-12T05:19:19.404Z,83.20
2018-09-12T05:21:52.087Z,82.10
2018-09-12T05:24:24.707Z,80.30
2018-09-12T05:26:57.643Z,82.70
2018-09-12T05:29:30.431Z,85.70
2018-09-12T05:32:03.212Z,87.30
2018-09-12T05:34:50.231Z,88.90
2018-09-12T05:37:24.073Z,89.70
2018-09-12T05:40:02.728Z,90.70
2018-09-12T05:42:38.409Z,91.20
2018-09-12T16:10:48.656Z,66.50
2018-09-12T16:13:22.100Z,67.20
2018-09-12T16:15:58.805Z,68.50
2018-09-12T16:18:32.954Z,67.60
2018-09-12T16:21:05.437Z,66.90
2018-09-12T16:23:38.592Z,67.30
2018-09-12T16:26:27.356Z,68.90
2018-09-12T16:29:05.367Z,70.40
2018-09-12T16:31:42.617Z,71.10
2018-09-12T16:34:26.290Z,69.90
2018-09-12T16:40:01.819Z,68.60
2018-09-12T16:42:35.720Z,65.70
2018-09-12T16:45:18.538Z,65.00
2018-09-12T16:47:51.472Z,65.00
2018-09-12T16:50:24.554Z,65.80
2018-09-12T16:53:02.416Z,66.10
2018-09-12T16:55:35.863Z,67.50
2018-09-12T16:58:10.328Z,69.50
2018-09-12T17:00:56.172Z,70.70
2018-09-12T17:03:30.705Z,71.30
2018-09-12T17:06:05.097Z,72.10
2018-09-12T17:08:40.637Z,72.60
2018-09-12T17:11:15.000Z,73.70
2018-09-12T17:13:49.761Z,74.60
2018-09-12T17:16:23.566Z,73.40
2018-09-12T17:18:56.893Z,72.90
2018-09-12T17:21:31.799Z,73.50
2018-09-12T17:24:06.388Z,74.10
2018-09-12T17:26:40.099Z,74.20
2018-09-12T17:29:15.693Z,74.80
2018-09-12T17:31:53.837Z,75.20
2018-09-12T17:34:28.308Z,75.50
2018-09-12T17:37:02.633Z,75.60
2018-09-12T17:39:38.388Z,75.90
2018-09-12T17:42:21.272Z,76.70
2018-09-12T17:44:56.936Z,76.70
2018-09-12T17:47:36.341Z,76.30
2018-09-12T17:50:10.689Z,76.70
2018-09-12T17:52:45.044Z,77.70
2018-09-12T17:55:23.888Z,78.60
2018-09-12T17:57:57.095Z,79.70
2018-09-12T18:00:32.242Z,79.70
2018-09-12T18:03:09.926Z,80.20
2018-09-12T18:05:55.326Z,79.90
2018-09-12T18:08:28.225Z,80.40
2018-09-12T18:11:02.332Z,80.50
2018-09-12T18:13:35.532Z,80.60
2018-09-12T18:16:13.738Z,80.60
2018-09-12T18:18:56.368Z,81.10
2018-09-12T18:21:31.548Z,81.20
2018-09-12T18:30:05.962Z,85.30
2018-09-12T18:32:50.094Z,86.40
2018-09-12T18:35:25.520Z,87.00
2018-09-12T18:38:03.233Z,86.70
2018-09-12T18:40:41.335Z,86.10
2018-09-12T18:43:19.271Z,85.30
2018-09-12T18:45:55.928Z,85.10
2018-09-12T18:48:31.658Z,84.90
2018-09-12T18:51:11.292Z,83.90
2018-09-12T18:53:45.930Z,83.90
2018-09-12T18:56:20.474Z,81.80
2018-09-12T18:58:53.549Z,80.30
2018-09-12T19:01:29.420Z,78.70
2018-09-12T19:04:03.256Z,78.40
2018-09-12T19:06:39.590Z,79.10
2018-09-12T19:09:13.979Z,79.60
2018-09-12T19:11:49.275Z,80.00
2018-09-12T19:14:23.073Z,80.50
2018-09-12T19:16:56.164Z,80.80
2018-09-12T19:19:28.962Z,80.80
2018-09-12T19:22:04.592Z,81.00
2018-09-12T19:24:37.699Z,81.30
2018-09-12T19:27:11.693Z,81.60
2018-09-12T19:29:45.250Z,82.00
2018-09-12T19:32:18.467Z,82.70
2018-09-12T19:34:51.668Z,83.10
2018-09-12T19:37:24.723Z,83.00
2018-09-12T19:40:04.690Z,83.00
2018-09-12T19:42:37.785Z,82.20
2018-09-12T19:45:10.942Z,81.30
2018-09-12T19:47:43.743Z,81.50
2018-09-12T19:50:17.228Z,81.20
2018-09-12T19:52:50.354Z,80.90
2018-09-12T19:55:24.737Z,81.00
2018-09-12T19:58:00.800Z,80.90
2018-09-12T20:00:36.232Z,80.70
2018-09-12T20:03:10.705Z,80.30
2018-09-12T20:05:43.857Z,80.60
2018-09-12T20:08:17.409Z,80.80
2018-09-12T20:10:50.496Z,80.10
2018-09-12T20:13:25.003Z,80.30
2018-09-12T20:15:59.551Z,81.00
2018-09-12T20:18:32.242Z,82.00
2018-09-12T20:21:06.808Z,81.50
2018-09-12T20:23:41.855Z,81.30
2018-09-12T20:26:14.610Z,82.40
2018-09-12T20:28:49.231Z,81.40
2018-09-12T20:31:22.492Z,81.20
2018-09-12T20:33:55.361Z,81.10
2018-09-12T20:36:28.258Z,81.10
2018-09-12T20:39:03.121Z,80.50
2018-09-12T20:41:36.367Z,80.10
2018-09-12T20:44:09.735Z,80.00
2018-09-12T20:46:42.478Z,79.60
2018-09-12T20:49:15.478Z,79.70
2018-09-12T20:51:49.912Z,79.80
2018-09-12T20:54:22.735Z,79.50
2018-09-12T20:56:55.735Z,79.80
2018-09-12T20:59:28.475Z,79.70
2018-09-12T21:02:01.270Z,78.70
2018-09-12T21:05:25.323Z,77.70
2018-09-12T21:07:58.153Z,76.70
2018-09-12T21:10:35.372Z,76.80
2018-09-12T21:13:08.289Z,77.20
2018-09-12T21:15:41.195Z,76.80
2018-09-12T21:18:14.001Z,76.00
2018-09-12T21:20:47.125Z,75.60
2018-09-12T21:23:21.732Z,75.70
2018-09-12T21:25:54.575Z,75.60
2018-09-12T21:28:27.780Z,75.70
2018-09-12T21:31:00.944Z,76.30
2018-09-12T21:33:34.516Z,76.50
2018-09-12T21:36:08.105Z,76.90
2018-09-12T21:38:40.797Z,76.90
2018-09-12T21:41:14.232Z,77.10
2018-09-12T21:43:52.652Z,76.30
2018-09-12T21:46:26.031Z,76.40
2018-09-12T21:48:58.741Z,76.60
2018-09-12T21:51:31.666Z,77.40
2018-09-12T21:54:33.074Z,76.60
2018-09-12T21:57:07.051Z,76.30
2018-09-12T22:01:48.429Z,76.90
2018-09-12T22:04:21.656Z,76.70
2018-09-12T22:06:54.596Z,76.40
2018-09-12T22:09:27.417Z,75.50
2018-09-12T22:12:00.688Z,75.90
2018-09-12T22:14:33.614Z,76.70
2018-09-12T22:17:06.583Z,77.40
2018-09-12T22:19:40.026Z,77.90
2018-09-12T22:22:12.877Z,78.70
2018-09-12T22:24:45.712Z,78.70
2018-09-12T22:27:19.033Z,78.70
2018-09-12T22:29:51.905Z,77.40
2018-09-12T22:32:24.798Z,77.40
2018-09-12T22:34:57.628Z,77.50
2018-09-12T22:37:30.504Z,77.90
2018-09-12T22:40:03.554Z,77.90
2018-09-12T22:42:36.350Z,78.30
2018-09-12T22:45:09.191Z,79.00
2018-09-12T22:47:42.375Z,77.80
2018-09-12T22:50:15.010Z,77.20
2018-09-12T22:52:47.713Z,76.90
2018-09-12T22:55:20.380Z,76.70
2018-09-12T22:57:53.148Z,76.10
2018-09-12T23:00:26.162Z,75.60
2018-09-12T23:02:59.960Z,75.00
2018-09-12T23:05:32.738Z,74.70
2018-09-12T23:08:05.432Z,75.00
2018-09-12T23:10:38.041Z,75.70
2018-09-12T23:13:10.855Z,77.30
2018-09-12T23:15:43.593Z,77.60
2018-09-12T23:18:16.337Z,77.90
2018-09-12T23:20:49.024Z,78.10
2018-09-12T23:23:21.862Z,78.30
2018-09-12T23:25:56.156Z,78.60
2018-09-12T23:28:29.421Z,79.20
2018-09-12T23:31:02.270Z,80.00
2018-09-12T23:33:35.339Z,79.40
2018-09-12T23:36:08.229Z,79.70
2018-09-12T23:38:40.949Z,79.20
2018-09-12T23:41:13.797Z,77.90
2018-09-12T23:43:46.469Z,76.50
2018-09-12T23:46:19.826Z,76.40
2018-09-12T23:48:52.592Z,77.00
2018-09-12T23:51:25.484Z,77.40
2018-09-12T23:53:58.379Z,77.90
2018-09-12T23:56:31.970Z,78.30
2018-09-12T23:59:04.952Z,78.90
